Time;durP1;ratioP1;P1;durP2;ratioP2;P2;SDS_P1;SDS_P2;PMS_P1;PMS_P2;Temp;Humidity;BMP_temperature;BMP_pressure;BME280_temperature;BME280_humidity;BME280_pressure;Samples;Min_cycle;Max_cycle;Signal;HPM_P1;HPM_P2
2021/08/16 00:02:16;;;;;;;6.27;5.40;;;20.00;99.90;;;;;;6288057;22;20432;-84
2021/08/16 00:04:43;;;;;;;9.13;5.57;;;19.90;99.90;;;;;;6290814;22;20784;-85
2021/08/16 00:07:11;;;;;;;6.20;5.47;;;19.90;99.90;;;;;;6290139;22;20445;-83
2021/08/16 00:09:38;;;;;;;9.67;5.37;;;19.90;99.90;;;;;;6290457;22;20405;-85
2021/08/16 00:12:05;;;;;;;7.20;4.53;;;19.90;99.90;;;;;;6288819;22;20437;-85
2021/08/16 00:14:34;;;;;;;7.80;4.60;;;19.90;99.90;;;;;;6288119;22;20412;-85
2021/08/16 00:17:00;;;;;;;8.10;7.00;;;19.90;99.90;;;;;;6287023;22;20746;-85
2021/08/16 00:19:27;;;;;;;6.60;5.73;;;19.90;99.90;;;;;;6291755;22;20413;-85
2021/08/16 00:21:54;;;;;;;6.40;4.43;;;19.90;99.90;;;;;;6286520;22;20409;-85
2021/08/16 00:24:20;;;;;;;6.00;4.30;;;19.50;99.90;;;;;;6287655;22;20469;-85
2021/08/16 00:26:47;;;;;;;6.77;4.70;;;19.80;99.90;;;;;;6287167;22;20409;-85
2021/08/16 00:29:14;;;;;;;6.60;5.67;;;19.80;99.90;;;;;;6285347;22;20745;-85
2021/08/16 00:31:44;;;;;;;6.57;5.27;;;19.80;99.90;;;;;;6286281;22;20464;-86
2021/08/16 00:34:11;;;;;;;6.00;5.00;;;19.80;99.90;;;;;;6285805;22;20443;-85
2021/08/16 00:36:38;;;;;;;6.33;4.50;;;19.80;99.90;;;;;;6285594;22;20681;-85
2021/08/16 00:39:05;;;;;;;8.23;5.13;;;19.80;99.90;;;;;;6287890;22;20447;-84
2021/08/16 00:41:32;;;;;;;7.97;4.70;;;19.80;99.90;;;;;;6305123;22;20397;-85
2021/08/16 00:43:58;;;;;;;7.77;5.10;;;19.80;99.90;;;;;;6303914;22;20401;-84
2021/08/16 00:46:26;;;;;;;7.20;4.77;;;19.70;99.90;;;;;;6295938;22;20405;-86
2021/08/16 00:48:54;;;;;;;11.83;5.83;;;19.70;99.90;;;;;;6292953;22;20429;-84
2021/08/16 00:51:21;;;;;;;5.80;4.70;;;19.60;99.90;;;;;;6291560;22;20441;-85
2021/08/16 00:53:48;;;;;;;8.30;4.50;;;19.60;99.90;;;;;;6292847;22;20405;-85
2021/08/16 00:56:15;;;;;;;5.73;4.40;;;19.60;99.90;;;;;;6291847;22;20402;-84
2021/08/16 00:58:42;;;;;;;5.03;3.57;;;19.60;99.90;;;;;;6292111;22;20421;-85
2021/08/16 01:01:09;;;;;;;3.97;3.67;;;19.60;99.90;;;;;;6288858;22;20409;-85
2021/08/16 01:03:35;;;;;;;6.53;5.00;;;19.70;99.90;;;;;;6286566;22;20421;-85
2021/08/16 01:06:03;;;;;;;10.30;4.30;;;19.70;99.90;;;;;;6287332;22;20744;-84
2021/08/16 01:08:30;;;;;;;5.73;4.33;;;19.60;99.90;;;;;;6286680;22;20429;-85
2021/08/16 01:10:57;;;;;;;6.87;5.37;;;19.70;99.90;;;;;;6287423;22;20401;-85
2021/08/16 01:13:24;;;;;;;7.10;4.33;;;19.60;99.90;;;;;;6288844;22;20451;-84
2021/08/16 01:15:55;;;;;;;11.03;5.27;;;19.60;99.90;;;;;;6304706;22;20414;-84
2021/08/16 01:18:22;;;;;;;6.90;4.63;;;19.60;99.90;;;;;;6305475;22;20543;-84
2021/08/16 01:20:48;;;;;;;4.53;4.10;;;;;;;;;;6304640;22;20456;-83
2021/08/16 01:23:16;;;;;;;5.10;4.37;;;19.60;99.90;;;;;;6305481;22;20408;-85
2021/08/16 01:25:47;;;;;;;5.80;5.17;;;19.60;99.90;;;;;;6305064;22;20377;-84
2021/08/16 01:28:16;;;;;;;8.10;4.57;;;19.50;99.90;;;;;;6300336;22;20532;-85
2021/08/16 01:30:42;;;;;;;5.93;4.90;;;19.50;99.90;;;;;;6286854;22;20455;-84
2021/08/16 01:33:09;;;;;;;5.23;4.23;;;19.40;99.90;;;;;;6285732;22;20473;-85
2021/08/16 01:35:36;;;;;;;8.03;4.40;;;19.40;99.90;;;;;;6285414;22;20435;-84
2021/08/16 01:38:03;;;;;;;5.50;4.43;;;19.40;99.90;;;;;;6291493;22;20464;-84
2021/08/16 01:40:29;;;;;;;5.57;4.10;;;19.40;99.90;;;;;;6292779;22;20905;-84
2021/08/16 01:42:57;;;;;;;6.10;4.03;;;19.30;99.90;;;;;;6286379;22;20397;-85
2021/08/16 01:45:25;;;;;;;5.37;4.37;;;19.40;99.90;;;;;;6286041;22;20405;-85
2021/08/16 01:47:51;;;;;;;7.00;4.50;;;19.30;99.90;;;;;;6286037;22;20425;-85
2021/08/16 01:50:18;;;;;;;5.10;4.10;;;19.20;99.90;;;;;;6285205;22;20419;-85
2021/08/16 01:52:45;;;;;;;9.60;4.53;;;19.20;99.90;;;;;;6284167;22;20441;-85
2021/08/16 01:55:12;;;;;;;4.83;4.37;;;19.20;99.90;;;;;;6283487;22;20443;-85
2021/08/16 01:57:39;;;;;;;7.80;4.53;;;19.20;99.90;;;;;;6283950;22;20478;-85
2021/08/16 02:00:09;;;;;;;11.77;4.47;;;19.20;99.90;;;;;;6284072;22;20405;-85
2021/08/16 02:02:37;;;;;;;8.23;4.47;;;19.10;99.90;;;;;;6289561;22;20402;-83
2021/08/16 02:05:04;;;;;;;8.20;4.60;;;19.10;99.90;;;;;;6300433;22;20475;-84
2021/08/16 02:07:31;;;;;;;5.43;4.57;;;19.20;99.90;;;;;;6300670;22;20421;-84
2021/08/16 02:09:58;;;;;;;4.90;3.73;;;19.20;99.90;;;;;;6303831;22;20459;-84
2021/08/16 02:12:24;;;;;;;5.63;4.47;;;19.20;99.90;;;;;;6291318;22;20470;-83
2021/08/16 02:14:51;;;;;;;9.23;4.40;;;19.30;99.90;;;;;;6283016;22;20405;-83
2021/08/16 02:17:17;;;;;;;8.27;4.23;;;19.20;99.90;;;;;;6283061;22;20451;-84
2021/08/16 02:19:47;;;;;;;8.97;4.40;;;19.20;99.90;;;;;;6283284;22;20405;-84
2021/08/16 02:22:14;;;;;;;8.20;4.50;;;19.10;99.90;;;;;;6283559;22;20409;-84
2021/08/16 02:24:41;;;;;;;4.73;4.33;;;19.20;99.90;;;;;;6283215;22;20454;-85
2021/08/16 02:27:08;;;;;;;4.67;3.50;;;;;;;;;;6284431;22;20401;-85
2021/08/16 02:29:35;;;;;;;4.87;4.20;;;19.10;99.90;;;;;;6284145;22;20405;-86
2021/08/16 02:32:03;;;;;;;4.90;3.93;;;19.10;99.90;;;;;;6283448;22;20429;-83
2021/08/16 02:34:30;;;;;;;6.43;4.90;;;19.10;99.90;;;;;;6283582;22;20394;-83
2021/08/16 02:36:57;;;;;;;6.10;4.90;;;19.10;99.90;;;;;;6282408;22;20921;-84
2021/08/16 02:39:24;;;;;;;6.97;4.87;;;19.10;99.90;;;;;;6282101;22;20413;-84
2021/08/16 02:41:51;;;;;;;5.40;4.90;;;19.10;99.90;;;;;;6282887;22;20921;-83
2021/08/16 02:44:17;;;;;;;4.20;3.80;;;19.10;99.90;;;;;;6282982;22;20413;-84
2021/08/16 02:46:44;;;;;;;5.90;4.90;;;19.10;99.90;;;;;;6284944;22;20404;-84
2021/08/16 02:49:10;;;;;;;4.30;3.90;;;19.00;99.90;;;;;;6285634;22;20427;-85
2021/08/16 02:51:37;;;;;;;5.70;4.30;;;19.00;99.90;;;;;;6285410;22;20458;-83
2021/08/16 02:54:05;;;;;;;6.43;4.67;;;19.00;99.90;;;;;;6285278;22;20408;-82
2021/08/16 02:56:31;;;;;;;6.27;4.57;;;19.10;99.90;;;;;;6284918;22;20401;-84
2021/08/16 02:58:58;;;;;;;5.53;5.03;;;19.10;99.90;;;;;;6285123;22;20421;-85
2021/08/16 03:01:25;;;;;;;7.13;4.60;;;19.10;99.90;;;;;;6285274;22;20480;-83
2021/08/16 03:03:51;;;;;;;5.50;5.00;;;19.20;99.90;;;;;;6285656;22;20408;-84
2021/08/16 03:06:18;;;;;;;7.00;5.60;;;19.20;99.90;;;;;;6285763;22;20462;-85
2021/08/16 03:08:44;;;;;;;8.60;5.27;;;19.20;99.90;;;;;;6299115;22;20425;-82
2021/08/16 03:11:12;;;;;;;8.40;5.37;;;19.20;99.90;;;;;;6304660;22;20385;-82
2021/08/16 03:13:39;;;;;;;7.10;4.53;;;19.10;99.90;;;;;;6304029;22;20466;-83
2021/08/16 03:16:07;;;;;;;6.03;5.00;;;19.10;99.90;;;;;;6303422;22;20401;-82
2021/08/16 03:18:34;;;;;;;7.90;5.30;;;19.20;99.90;;;;;;6304929;22;20401;-82
2021/08/16 03:21:00;;;;;;;5.40;4.90;;;19.20;99.90;;;;;;6301951;22;20865;-84
2021/08/16 03:23:28;;;;;;;7.03;4.53;;;19.20;99.90;;;;;;6294968;22;20397;-83
2021/08/16 03:25:54;;;;;;;12.40;5.23;;;19.20;99.90;;;;;;6299628;22;20473;-83
2021/08/16 03:28:22;;;;;;;6.07;4.67;;;19.10;99.90;;;;;;6298452;22;20489;-83
2021/08/16 03:30:49;;;;;;;9.03;4.97;;;19.10;99.90;;;;;;6298822;22;20409;-83
2021/08/16 03:33:16;;;;;;;6.93;4.50;;;19.10;99.90;;;;;;6299170;22;20428;-82
2021/08/16 03:35:43;;;;;;;5.10;4.60;;;19.00;99.90;;;;;;6295320;22;20409;-83
2021/08/16 03:38:10;;;;;;;9.30;5.70;;;19.00;99.90;;;;;;6288422;22;20563;-83
2021/08/16 03:40:37;;;;;;;8.87;5.00;;;19.00;99.90;;;;;;6286219;22;20454;-83
2021/08/16 03:43:03;;;;;;;7.90;5.03;;;19.00;99.90;;;;;;6286069;22;20760;-84
2021/08/16 03:45:32;;;;;;;6.10;4.67;;;18.90;99.90;;;;;;6286288;22;20408;-84
2021/08/16 03:47:58;;;;;;;4.53;4.13;;;18.90;99.90;;;;;;6286743;22;20425;-83
2021/08/16 03:50:25;;;;;;;7.50;5.27;;;18.90;99.90;;;;;;6286235;22;20405;-83
2021/08/16 03:52:53;;;;;;;6.20;4.93;;;18.80;99.90;;;;;;6287650;22;20441;-84
2021/08/16 03:55:20;;;;;;;5.50;5.00;;;18.80;99.90;;;;;;6287293;22;20439;-84
2021/08/16 03:57:46;;;;;;;6.73;5.37;;;18.80;99.90;;;;;;6288426;22;20436;-83
2021/08/16 04:00:14;;;;;;;10.33;5.10;;;18.80;99.90;;;;;;6293128;22;20401;-83
2021/08/16 04:02:43;;;;;;;7.80;5.00;;;18.80;99.90;;;;;;6300701;22;20397;-83
2021/08/16 04:05:11;;;;;;;5.20;4.70;;;18.80;99.90;;;;;;6300452;22;20476;-83
2021/08/16 04:07:37;;;;;;;5.13;4.33;;;19.00;99.90;;;;;;6301391;22;20496;-83
2021/08/16 04:10:05;;;;;;;5.97;4.17;;;18.90;99.90;;;;;;6296094;22;20427;-83
2021/08/16 04:12:31;;;;;;;8.47;5.30;;;18.90;99.90;;;;;;6294972;22;20498;-83
2021/08/16 04:14:58;;;;;;;6.03;4.70;;;18.90;99.90;;;;;;6297528;22;20409;-83
2021/08/16 04:17:24;;;;;;;7.67;6.03;;;18.90;99.90;;;;;;6295237;22;20401;-83
2021/08/16 04:19:52;;;;;;;5.93;4.50;;;19.00;99.90;;;;;;6294641;22;20412;-83
2021/08/16 04:22:19;;;;;;;5.20;4.70;;;19.00;99.90;;;;;;6297672;22;20435;-83
2021/08/16 04:24:45;;;;;;;6.97;5.83;;;19.00;99.90;;;;;;6299404;22;20404;-83
2021/08/16 04:27:12;;;;;;;6.23;4.70;;;19.10;99.90;;;;;;6298752;22;20496;-83
2021/08/16 04:29:39;;;;;;;5.60;5.07;;;19.10;99.90;;;;;;6298593;22;20421;-83
2021/08/16 04:32:06;;;;;;;7.30;4.87;;;19.10;99.90;;;;;;6297112;22;20404;-83
2021/08/16 04:34:32;;;;;;;7.47;4.87;;;19.20;99.90;;;;;;6292502;22;20409;-83
2021/08/16 04:37:00;;;;;;;5.83;4.60;;;19.20;99.90;;;;;;6289887;22;20401;-83
2021/08/16 04:39:27;;;;;;;6.30;4.83;;;19.20;99.90;;;;;;6288635;22;20435;-83
2021/08/16 04:41:53;;;;;;;8.03;5.20;;;19.30;99.90;;;;;;6287909;22;20406;-83
2021/08/16 04:44:20;;;;;;;6.73;4.80;;;19.30;99.90;;;;;;6287578;22;20393;-83
2021/08/16 04:46:46;;;;;;;5.40;4.40;;;19.30;99.90;;;;;;6290396;22;20405;-83
2021/08/16 04:49:13;;;;;;;12.10;4.87;;;19.30;99.90;;;;;;6288226;22;20429;-83
2021/08/16 04:51:39;;;;;;;7.60;4.43;;;19.40;99.90;;;;;;6288502;22;20409;-83
2021/08/16 04:54:07;;;;;;;6.27;5.50;;;19.40;99.90;;;;;;6282314;22;20448;-83
2021/08/16 04:56:34;;;;;;;10.07;6.70;;;19.40;99.90;;;;;;6279507;22;20924;-83
2021/08/16 04:59:01;;;;;;;10.10;5.10;;;19.40;99.90;;;;;;6281508;22;20909;-83
2021/08/16 05:01:28;;;;;;;9.20;5.00;;;19.40;99.90;;;;;;6282133;22;20753;-83
2021/08/16 05:03:55;;;;;;;7.60;5.23;;;19.40;99.90;;;;;;6282693;22;20427;-83
2021/08/16 05:06:28;;;;;;;6.40;4.90;;;19.40;99.90;;;;;;6283244;22;20413;-84
2021/08/16 05:08:55;;;;;;;5.43;4.23;;;19.40;99.90;;;;;;6284394;22;20425;-84
2021/08/16 05:11:24;;;;;;;7.77;4.50;;;19.30;99.90;;;;;;6289691;22;20401;-84
2021/08/16 05:13:51;;;;;;;8.50;5.53;;;;;;;;;;6291463;22;20437;-83
2021/08/16 05:16:23;;;;;;;7.37;4.80;;;19.40;99.90;;;;;;6290995;22;20735;-84
2021/08/16 05:18:50;;;;;;;6.70;5.10;;;19.40;99.90;;;;;;6290890;22;20453;-84
2021/08/16 05:21:16;;;;;;;5.07;4.57;;;19.50;99.90;;;;;;6291911;22;20412;-83
2021/08/16 05:23:43;;;;;;;8.70;4.33;;;19.50;99.90;;;;;;6290123;22;20901;-84
2021/08/16 05:26:10;;;;;;;5.53;4.60;;;19.60;99.90;;;;;;6291944;22;20405;-84
2021/08/16 05:28:38;;;;;;;4.97;4.03;;;19.70;99.90;;;;;;6291503;22;20421;-83
2021/08/16 05:31:04;;;;;;;10.60;5.30;;;19.70;99.90;;;;;;6290556;22;20492;-83
2021/08/16 05:33:31;;;;;;;18.23;12.10;;;19.80;99.90;;;;;;6293336;22;20551;-83
2021/08/16 05:35:58;;;;;;;5.60;5.20;;;19.80;99.90;;;;;;6292952;22;20404;-83
2021/08/16 05:38:24;;;;;;;8.63;5.13;;;19.90;99.90;;;;;;6304172;22;20518;-83
2021/08/16 05:40:51;;;;;;;4.73;4.00;;;19.90;99.90;;;;;;6296299;22;20401;-83
2021/08/16 05:43:18;;;;;;;11.23;5.93;;;19.90;99.90;;;;;;6293256;22;20397;-83
2021/08/16 05:45:46;;;;;;;7.27;4.53;;;19.90;99.90;;;;;;6291182;22;20427;-83
2021/08/16 05:48:17;;;;;;;5.20;4.67;;;20.00;99.90;;;;;;6290699;22;20424;-83
2021/08/16 05:50:43;;;;;;;8.23;5.43;;;19.80;99.90;;;;;;6289008;22;20404;-83
2021/08/16 05:53:10;;;;;;;10.33;5.63;;;20.10;99.90;;;;;;6287021;22;20475;-84
2021/08/16 05:55:37;;;;;;;5.97;5.37;;;20.20;99.90;;;;;;6287869;22;20427;-83
2021/08/16 05:58:04;;;;;;;10.17;5.80;;;20.20;99.90;;;;;;6287613;22;20451;-83
2021/08/16 06:00:30;;;;;;;12.57;9.10;;;20.20;99.90;;;;;;6287390;22;20405;-83
2021/08/16 06:02:58;;;;;;;8.83;6.37;;;20.30;99.90;;;;;;6287469;22;20401;-83
2021/08/16 06:05:25;;;;;;;7.27;6.13;;;20.40;99.90;;;;;;6290100;22;20401;-83
2021/08/16 06:07:51;;;;;;;11.60;8.63;;;20.40;99.90;;;;;;6288364;22;20763;-84
2021/08/16 06:10:18;;;;;;;12.00;8.20;;;20.50;99.90;;;;;;6287068;22;20443;-84
2021/08/16 06:12:45;;;;;;;7.13;5.53;;;20.60;99.90;;;;;;6287782;22;20463;-84
2021/08/16 06:15:12;;;;;;;5.40;4.70;;;20.60;99.90;;;;;;6287758;22;20463;-84
2021/08/16 06:17:40;;;;;;;12.73;8.97;;;20.30;99.90;;;;;;6286969;22;20405;-84
2021/08/16 06:20:10;;;;;;;13.73;9.10;;;20.50;99.90;;;;;;6286512;22;20471;-84
2021/08/16 06:22:38;;;;;;;15.83;12.10;;;20.50;99.90;;;;;;6288676;22;20395;-84
2021/08/16 06:25:05;;;;;;;9.37;5.67;;;20.60;99.90;;;;;;6286797;22;20397;-84
2021/08/16 06:27:32;;;;;;;9.83;6.90;;;20.80;99.90;;;;;;6286023;22;20716;-84
2021/08/16 06:29:59;;;;;;;4.80;3.50;;;20.80;99.90;;;;;;6284005;22;20401;-84
2021/08/16 06:32:26;;;;;;;5.40;3.43;;;20.90;99.90;;;;;;6284299;22;20390;-83
2021/08/16 06:34:53;;;;;;;5.33;3.47;;;20.80;99.90;;;;;;6282492;22;20445;-83
2021/08/16 06:37:21;;;;;;;6.10;3.70;;;20.90;99.90;;;;;;6284685;22;20785;-85
2021/08/16 06:39:47;;;;;;;4.30;3.33;;;20.80;99.90;;;;;;6285861;22;20413;-83
2021/08/16 06:42:14;;;;;;;9.53;3.70;;;20.90;99.90;;;;;;6286101;22;20412;-83
2021/08/16 06:44:40;;;;;;;6.97;3.80;;;20.80;99.90;;;;;;6286237;22;20404;-84
2021/08/16 06:47:07;;;;;;;5.17;3.40;;;20.80;99.90;;;;;;6285937;22;20405;-83
2021/08/16 06:49:37;;;;;;;4.13;3.10;;;20.70;99.90;;;;;;6281804;22;20429;-84
2021/08/16 06:52:04;;;;;;;7.67;3.30;;;20.70;99.90;;;;;;6289804;22;20411;-83
2021/08/16 06:54:32;;;;;;;4.53;3.60;;;20.70;99.90;;;;;;6294917;22;20506;-83
2021/08/16 06:56:59;;;;;;;3.20;2.83;;;20.30;99.90;;;;;;6298794;22;20385;-83
2021/08/16 06:59:26;;;;;;;5.53;3.37;;;20.70;99.90;;;;;;6297961;22;20417;-83
2021/08/16 07:01:54;;;;;;;5.00;3.37;;;20.60;99.90;;;;;;6289712;22;20405;-84
2021/08/16 07:04:20;;;;;;;4.53;3.60;;;20.60;99.90;;;;;;6284377;22;20484;-82
2021/08/16 07:06:47;;;;;;;3.47;3.17;;;20.70;99.90;;;;;;6285606;22;20405;-83
2021/08/16 07:09:14;;;;;;;4.33;3.27;;;20.80;99.90;;;;;;6284699;22;20993;-84
2021/08/16 07:11:42;;;;;;;3.90;3.23;;;20.70;99.90;;;;;;6285220;22;20390;-83
2021/08/16 07:14:10;;;;;;;5.03;4.00;;;20.70;99.90;;;;;;6284735;22;20440;-83
2021/08/16 07:16:36;;;;;;;8.20;3.30;;;20.60;99.90;;;;;;6284868;22;20412;-83
2021/08/16 07:19:03;;;;;;;6.90;3.47;;;20.80;99.90;;;;;;6287085;22;20503;-82
2021/08/16 07:21:29;;;;;;;5.40;4.27;;;20.80;99.90;;;;;;6287596;22;20405;-82
2021/08/16 07:23:56;;;;;;;5.90;5.27;;;20.80;99.90;;;;;;6284940;22;20408;-83
2021/08/16 07:26:23;;;;;;;5.97;3.60;;;20.70;99.90;;;;;;6288719;22;20428;-82
2021/08/16 07:28:51;;;;;;;4.10;3.70;;;20.70;99.90;;;;;;6290239;22;20986;-83
2021/08/16 07:31:19;;;;;;;9.90;4.47;;;20.60;99.90;;;;;;6286834;22;20404;-83
2021/08/16 07:33:45;;;;;;;8.13;3.87;;;21.00;99.90;;;;;;6293370;22;20427;-83
2021/08/16 07:36:12;;;;;;;6.67;4.03;;;21.00;99.90;;;;;;6295741;22;20410;-82
2021/08/16 07:38:38;;;;;;;5.40;3.40;;;21.00;99.90;;;;;;6295239;22;20428;-83
2021/08/16 07:41:13;;;;;;;5.40;3.77;;;21.10;99.90;;;;;;6290363;22;20406;-83
2021/08/16 07:43:43;;;;;;;5.57;3.57;;;21.20;99.90;;;;;;6289556;22;20404;-84
2021/08/16 07:46:11;;;;;;;6.80;4.10;;;21.30;99.90;;;;;;6284939;22;20397;-83
2021/08/16 07:48:41;;;;;;;7.13;4.20;;;21.30;99.90;;;;;;6283011;22;20809;-84
2021/08/16 07:51:07;;;;;;;8.53;4.37;;;21.40;99.90;;;;;;6282786;22;20703;-83
2021/08/16 07:53:34;;;;;;;5.60;3.83;;;21.50;99.90;;;;;;6281745;22;21054;-83
2021/08/16 07:56:01;;;;;;;6.40;3.90;;;21.50;99.90;;;;;;6282904;22;20893;-84
2021/08/16 07:58:27;;;;;;;7.73;4.03;;;21.40;99.90;;;;;;6291953;22;20409;-83
2021/08/16 08:00:54;;;;;;;6.93;3.97;;;21.20;99.90;;;;;;6304057;22;20404;-83
2021/08/16 08:03:25;;;;;;;10.40;3.67;;;21.10;99.90;;;;;;6306153;22;20393;-84
2021/08/16 08:05:52;;;;;;;4.80;3.80;;;21.20;99.90;;;;;;6306023;22;20457;-85
2021/08/16 08:08:19;;;;;;;4.67;3.60;;;21.10;99.90;;;;;;6305553;22;20539;-85
2021/08/16 08:10:45;;;;;;;6.70;4.17;;;21.10;99.90;;;;;;6306438;22;20431;-85
2021/08/16 08:13:13;;;;;;;7.20;4.03;;;21.10;99.90;;;;;;6304973;22;20389;-85
2021/08/16 08:15:40;;;;;;;12.20;6.50;;;21.20;99.90;;;;;;6304297;22;20451;-84
2021/08/16 08:18:06;;;;;;;7.60;4.83;;;21.20;99.90;;;;;;6301288;22;20421;-84
2021/08/16 08:20:35;;;;;;;12.27;4.50;;;21.20;99.90;;;;;;6299136;22;20462;-84
2021/08/16 08:23:02;;;;;;;9.63;5.40;;;21.40;99.90;;;;;;6287041;22;20412;-84
2021/08/16 08:25:29;;;;;;;6.43;5.33;;;21.40;99.90;;;;;;6283076;22;20401;-84
2021/08/16 08:27:55;;;;;;;8.67;5.77;;;21.50;99.90;;;;;;6282094;22;20432;-84
2021/08/16 08:30:22;;;;;;;12.73;6.27;;;21.50;99.90;;;;;;6282786;22;20409;-84
2021/08/16 08:32:51;;;;;;;6.07;5.40;;;21.50;99.90;;;;;;6283963;22;20451;-84
2021/08/16 08:35:19;;;;;;;6.83;5.20;;;21.60;99.90;;;;;;6282901;22;20436;-85
2021/08/16 08:37:47;;;;;;;7.97;5.30;;;21.80;99.90;;;;;;6284828;22;20428;-84
2021/08/16 08:40:14;;;;;;;7.67;5.40;;;21.80;99.90;;;;;;6301107;22;20377;-84
2021/08/16 08:42:40;;;;;;;5.10;4.57;;;21.90;99.90;;;;;;6291214;22;20521;-84
2021/08/16 08:45:09;;;;;;;5.67;4.60;;;21.90;99.90;;;;;;6285785;22;20454;-84
2021/08/16 08:47:36;;;;;;;5.57;5.03;;;21.90;99.90;;;;;;6283996;22;20413;-85
2021/08/16 08:50:04;;;;;;;5.70;4.53;;;21.80;99.90;;;;;;6282730;22;20412;-85
2021/08/16 08:52:31;;;;;;;5.97;4.80;;;21.80;99.90;;;;;;6283098;22;20482;-84
2021/08/16 08:54:59;;;;;;;6.00;4.70;;;21.80;99.90;;;;;;6284283;22;20751;-85
2021/08/16 08:57:30;;;;;;;5.03;4.53;;;22.30;99.90;;;;;;6286561;22;20424;-85
2021/08/16 08:59:57;;;;;;;6.10;4.77;;;22.10;99.90;;;;;;6285090;22;20480;-84
2021/08/16 09:02:24;;;;;;;5.30;4.80;;;22.00;99.90;;;;;;6283573;22;20401;-84
2021/08/16 09:04:52;;;;;;;5.33;4.87;;;22.10;99.90;;;;;;6284284;22;20401;-84
2021/08/16 09:07:29;;;;;;;5.50;4.97;;;22.00;99.90;;;;;;6283469;22;20466;-85
2021/08/16 09:09:56;;;;;;;5.10;4.70;;;22.10;99.90;;;;;;6284615;22;20446;-84
2021/08/16 09:12:32;;;;;;;19.73;12.47;;;22.30;99.90;;;;;;6282364;22;20413;-84
2021/08/16 09:14:59;;;;;;;4.90;4.20;;;22.40;99.90;;;;;;6284351;22;20425;-84
2021/08/16 09:17:34;;;;;;;4.80;4.40;;;22.20;99.90;;;;;;6285699;22;20463;-84
2021/08/16 09:20:01;;;;;;;4.90;3.80;;;22.50;99.90;;;;;;6286701;22;20923;-84
2021/08/16 09:22:32;;;;;;;6.70;4.40;;;22.40;99.90;;;;;;6284600;22;20412;-84
2021/08/16 09:25:01;;;;;;;4.90;4.10;;;22.30;99.90;;;;;;6285935;22;20389;-84
2021/08/16 09:27:28;;;;;;;4.77;4.27;;;22.30;99.90;;;;;;6285001;22;20404;-84
2021/08/16 09:29:56;;;;;;;6.83;4.80;;;22.30;99.90;;;;;;6284231;22;20463;-84
2021/08/16 09:32:31;;;;;;;8.10;4.77;;;22.30;99.90;;;;;;6282557;22;20462;-85
2021/08/16 09:35:06;;;;;;;5.40;4.20;;;22.30;99.90;;;;;;6285463;22;20431;-85
2021/08/16 09:37:32;;;;;;;5.00;4.00;;;22.30;99.90;;;;;;6286416;22;20762;-85
2021/08/16 09:40:00;;;;;;;5.77;5.27;;;;;;;;;;6296150;22;20463;-83
2021/08/16 09:42:26;;;;;;;9.53;4.60;;;22.40;99.90;;;;;;6301657;22;20401;-83
2021/08/16 09:44:54;;;;;;;5.27;4.20;;;22.50;99.90;;;;;;6301205;22;20396;-85
2021/08/16 09:47:22;;;;;;;5.10;3.77;;;22.50;99.90;;;;;;6302507;22;20412;-85
2021/08/16 09:49:57;;;;;;;4.40;4.00;;;22.60;99.90;;;;;;6300669;22;20429;-83
2021/08/16 09:52:29;;;;;;;5.40;4.90;;;22.70;99.90;;;;;;6289523;22;20389;-85
2021/08/16 09:54:57;;;;;;;4.87;4.43;;;23.00;99.90;;;;;;6290217;22;20451;-85
2021/08/16 09:57:27;;;;;;;6.27;3.80;;;23.00;99.90;;;;;;6292813;22;20423;-85
2021/08/16 09:59:55;;;;;;;3.57;3.27;;;23.00;99.90;;;;;;6292430;22;20425;-85
2021/08/16 10:02:23;;;;;;;5.67;4.33;;;23.00;99.90;;;;;;6291145;22;20412;-85
2021/08/16 10:04:50;;;;;;;6.97;4.00;;;22.80;99.90;;;;;;6291794;22;20402;-85
2021/08/16 10:07:18;;;;;;;5.60;4.37;;;22.70;99.90;;;;;;6291687;22;20405;-85
2021/08/16 10:09:45;;;;;;;6.83;5.10;;;22.70;99.90;;;;;;6292738;22;20447;-85
2021/08/16 10:12:13;;;;;;;5.67;4.67;;;22.90;99.90;;;;;;6287091;22;20397;-85
2021/08/16 10:14:41;;;;;;;7.20;4.60;;;22.80;99.90;;;;;;6287673;22;20455;-86
2021/08/16 10:17:08;;;;;;;4.27;3.87;;;22.70;99.90;;;;;;6287850;22;20397;-85
2021/08/16 10:19:42;;;;;;;6.97;3.10;;;22.80;99.90;;;;;;6288494;22;20421;-84
2021/08/16 10:22:10;;;;;;;5.03;4.13;;;23.00;99.90;;;;;;6289258;22;20495;-84
2021/08/16 10:24:36;;;;;;;5.00;4.50;;;23.10;99.90;;;;;;6287559;22;20397;-86
2021/08/16 10:27:07;;;;;;;5.50;4.13;;;23.10;99.90;;;;;;6286206;22;20470;-86
2021/08/16 10:29:35;;;;;;;4.47;3.40;;;23.10;99.90;;;;;;6286084;22;20889;-86
2021/08/16 10:32:03;;;;;;;5.03;3.90;;;23.00;99.90;;;;;;6299570;22;20389;-86
2021/08/16 10:34:33;;;;;;;4.87;4.40;;;23.00;99.90;;;;;;6304426;22;20451;-84
2021/08/16 10:37:02;;;;;;;5.23;3.70;;;23.00;99.90;;;;;;6296359;22;20431;-87
2021/08/16 10:39:37;;;;;;;4.80;3.73;;;23.00;99.90;;;;;;6292308;22;20455;-85
2021/08/16 10:42:11;;;;;;;5.70;3.70;;;23.10;99.90;;;;;;6290532;22;20455;-86
2021/08/16 10:44:42;;;;;;;8.50;4.00;;;23.10;99.90;;;;;;6295957;22;20401;-85
2021/08/16 10:47:10;;;;;;;5.37;3.83;;;23.00;99.90;;;;;;6289131;22;20381;-84
2021/08/16 10:49:38;;;;;;;6.77;3.53;;;23.10;99.90;;;;;;6292534;22;20500;-84
2021/08/16 10:52:20;;;;;;;3.83;3.53;;;23.10;99.90;;;;;;6290581;22;20481;-86
2021/08/16 10:54:47;;;;;;;4.20;3.07;;;23.10;99.90;;;;;;6290007;22;20929;-86
2021/08/16 10:57:14;;;;;;;3.90;3.60;;;23.10;99.90;;;;;;6289098;22;20389;-86
2021/08/16 10:59:41;;;;;;;3.67;3.30;;;23.20;99.90;;;;;;6286560;22;20811;-85
2021/08/16 11:02:08;;;;;;;3.87;3.37;;;23.20;99.90;;;;;;6289941;22;20784;-85
2021/08/16 11:04:35;;;;;;;5.20;4.70;;;23.00;99.90;;;;;;6287512;22;20401;-85
2021/08/16 11:07:04;;;;;;;7.60;5.07;;;23.40;99.90;;;;;;6291212;22;20409;-86
2021/08/16 11:09:34;;;;;;;5.57;4.70;;;23.60;99.90;;;;;;6296016;22;20420;-85
2021/08/16 11:12:05;;;;;;;4.27;3.87;;;23.70;99.90;;;;;;6290661;22;20413;-86
2021/08/16 11:14:34;;;;;;;4.20;3.53;;;23.60;99.90;;;;;;6289250;22;20429;-86
2021/08/16 11:17:01;;;;;;;4.00;3.03;;;23.60;99.90;;;;;;6289243;22;20431;-85
2021/08/16 11:19:41;;;;;;;4.23;3.83;;;23.60;99.90;;;;;;6288719;22;20425;-86
2021/08/16 11:22:07;;;;;;;4.10;3.70;;;23.50;99.90;;;;;;6290624;22;20400;-86
2021/08/16 11:24:37;;;;;;;3.53;2.97;;;23.50;99.90;;;;;;6288598;22;20920;-86
2021/08/16 11:27:05;;;;;;;4.10;3.70;;;23.60;99.90;;;;;;6289868;22;20401;-86
2021/08/16 11:29:32;;;;;;;5.10;3.90;;;23.50;99.90;;;;;;6288415;22;20494;-84
2021/08/16 11:32:02;;;;;;;4.00;3.60;;;23.50;99.90;;;;;;6287620;22;20405;-85
2021/08/16 11:34:29;;;;;;;4.33;3.93;;;23.60;99.90;;;;;;6287172;22;20405;-86
2021/08/16 11:36:57;;;;;;;3.87;3.40;;;23.60;99.90;;;;;;6287586;22;20722;-85
2021/08/16 11:39:31;;;;;;;4.40;3.60;;;23.70;99.90;;;;;;6287332;22;20433;-86
2021/08/16 11:42:00;;;;;;;3.50;3.20;;;23.80;99.90;;;;;;6298701;22;20405;-85
2021/08/16 11:44:29;;;;;;;5.37;3.57;;;23.90;99.90;;;;;;6301352;22;20402;-86
2021/08/16 11:46:58;;;;;;;6.00;3.37;;;24.00;99.90;;;;;;6302669;22;20756;-84
2021/08/16 11:49:26;;;;;;;4.67;3.43;;;24.10;99.90;;;;;;6301954;22;20431;-84
2021/08/16 11:52:01;;;;;;;3.37;3.07;;;23.90;99.90;;;;;;6299200;22;20412;-85
2021/08/16 11:54:29;;;;;;;2.93;2.73;;;23.90;99.90;;;;;;6300881;22;20448;-86
2021/08/16 11:56:57;;;;;;;3.73;3.43;;;23.50;99.90;;;;;;6300370;22;20405;-85
2021/08/16 11:59:25;;;;;;;3.73;3.37;;;23.70;99.90;;;;;;6299245;22;20447;-85
2021/08/16 12:01:53;;;;;;;3.57;3.27;;;23.70;99.90;;;;;;6297716;22;20401;-84
2021/08/16 12:04:21;;;;;;;7.30;3.40;;;23.80;99.90;;;;;;6292631;22;20404;-85
2021/08/16 12:06:49;;;;;;;5.13;3.07;;;23.90;99.90;;;;;;6286940;22;20409;-86
2021/08/16 12:09:16;;;;;;;3.83;3.27;;;24.10;99.90;;;;;;6287756;22;20425;-86
2021/08/16 12:11:43;;;;;;;5.73;2.97;;;24.30;99.90;;;;;;6288054;22;20405;-86
2021/08/16 12:14:10;;;;;;;17.50;3.20;;;24.40;99.90;;;;;;6287783;22;20734;-85
2021/08/16 12:16:39;;;;;;;3.67;2.67;;;24.50;99.90;;;;;;6287468;22;20447;-86
2021/08/16 12:19:07;;;;;;;5.10;4.53;;;24.40;99.90;;;;;;6287022;22;20424;-86
2021/08/16 12:21:33;;;;;;;6.13;3.10;;;24.40;99.90;;;;;;6287824;22;20724;-86
2021/08/16 12:24:03;;;;;;;2.67;2.47;;;24.30;99.90;;;;;;6286886;22;20405;-85
2021/08/16 12:26:32;;;;;;;4.20;2.93;;;24.30;99.90;;;;;;6290817;22;20411;-84
2021/08/16 12:28:59;;;;;;;6.93;3.17;;;24.20;99.90;;;;;;6286853;22;20425;-84
2021/08/16 12:31:29;;;;;;;6.90;3.10;;;24.10;99.90;;;;;;6288468;22;20733;-85
2021/08/16 12:33:59;;;;;;;2.97;2.77;;;24.10;99.90;;;;;;6286347;22;20408;-85
2021/08/16 12:36:28;;;;;;;3.57;3.00;;;23.60;99.90;;;;;;6286269;22;20900;-85
2021/08/16 12:38:57;;;;;;;3.10;2.90;;;24.00;99.90;;;;;;6286279;22;20437;-85
2021/08/16 12:41:25;;;;;;;3.83;2.90;;;24.10;99.90;;;;;;6285986;22;20435;-85
2021/08/16 12:43:53;;;;;;;6.97;3.10;;;24.20;99.90;;;;;;6286087;22;20405;-85
2021/08/16 12:46:31;;;;;;;7.73;3.90;;;24.10;99.90;;;;;;6286257;22;20405;-86
2021/08/16 12:49:00;;;;;;;4.33;3.10;;;23.90;99.90;;;;;;6285864;22;20421;-86
2021/08/16 12:51:28;;;;;;;3.53;3.23;;;24.00;99.90;;;;;;6285369;22;20405;-87